Time;durP1;ratioP1;P1;durP2;ratioP2;P2;SDS_P1;SDS_P2;PMS_P1;PMS_P2;Temp;Humidity;BMP_temperature;BMP_pressure;BME280_temperature;BME280_humidity;BME280_pressure;Samples;Min_cycle;Max_cycle;Signal;HPM_P1;HPM_P2
2024/02/12 00:01:55;;;;;;;47.30;23.10;;;;;;;3.73;100.00;98618.20;106094;1256;71285;-75
2024/02/12 00:04:26;;;;;;;59.70;23.50;;;;;;;3.80;100.00;98616.66;107834;1257;60065;-75
2024/02/12 00:06:57;;;;;;;73.60;24.10;;;;;;;3.81;100.00;98615.13;107808;1263;58903;-74
2024/02/12 00:09:25;;;;;;;39.50;23.10;;;;;;;3.83;100.00;98617.39;106815;1256;72600;-74
2024/02/12 00:11:54;;;;;;;38.20;23.80;;;;;;;3.89;100.00;98613.67;105675;1256;70417;-74
2024/02/12 00:14:22;;;;;;;44.20;22.10;;;;;;;3.89;100.00;98610.61;105784;1256;72724;-76
2024/02/12 00:16:50;;;;;;;48.60;22.30;;;;;;;3.82;100.00;98609.11;105494;1257;60497;-72
2024/02/12 00:19:17;;;;;;;49.40;23.80;;;;;;;3.79;100.00;98609.41;105474;1263;60362;-70
2024/02/12 00:21:48;;;;;;;45.90;21.00;;;;;;;3.83;100.00;98603.60;105201;1263;72855;-75
2024/02/12 00:24:17;;;;;;;42.10;21.70;;;;;;;3.87;100.00;98605.94;105728;1256;70157;-74
2024/02/12 00:26:44;;;;;;;51.10;22.00;;;;;;;3.84;100.00;98605.88;105567;1259;72789;-74
2024/02/12 00:29:14;;;;;;;38.10;20.40;;;;;;;3.79;100.00;98609.56;105480;1256;60453;-74
2024/02/12 00:31:42;;;;;;;40.90;20.10;;;;;;;3.84;100.00;98609.89;105449;1257;60557;-74
2024/02/12 00:34:10;;;;;;;46.30;21.40;;;;;;;3.92;100.00;98610.46;105511;1263;73839;-73
2024/02/12 00:36:38;;;;;;;50.60;20.50;;;;;;;3.92;100.00;98613.31;105427;1264;70348;-75
2024/02/12 00:39:09;;;;;;;34.80;20.20;;;;;;;3.88;100.00;98612.02;105517;1260;72497;-75
2024/02/12 00:41:37;;;;;;;45.90;20.40;;;;;;;3.89;100.00;98608.15;105552;1263;60420;-75
2024/02/12 00:44:04;;;;;;;55.20;20.60;;;;;;;3.92;100.00;98604.23;105535;1264;60445;-75
2024/02/12 00:46:32;;;;;;;55.90;20.80;;;;;;;3.90;100.00;98603.17;105518;1256;73836;-76
2024/02/12 00:48:59;;;;;;;35.20;19.40;;;;;;;3.87;100.00;98599.86;105559;1256;70349;-75
2024/02/12 00:51:27;;;;;;;48.90;20.20;;;;;;;3.88;100.00;98596.91;105496;1262;72678;-74
2024/02/12 00:53:55;;;;;;;40.30;18.80;;;;;;;3.90;100.00;98589.51;105549;1263;60451;-75
2024/02/12 00:56:24;;;;;;;44.80;18.80;;;;;;;3.86;100.00;98585.01;105580;1262;60602;-75
2024/02/12 00:58:51;;;;;;;37.20;20.10;;;;;;;3.81;100.00;98579.81;105476;1262;73862;-75
2024/02/12 01:01:19;;;;;;;48.90;18.90;;;;;;;3.81;100.00;98575.58;105703;1264;68283;-72
2024/02/12 01:03:47;;;;;;;50.50;19.40;;;;;;;3.83;100.00;98570.86;107120;1257;71617;-75
2024/02/12 01:06:16;;;;;;;42.20;19.10;;;;;;;3.80;100.00;98568.12;106585;1262;60443;-75
2024/02/12 01:08:44;;;;;;;55.50;17.50;;;;;;;3.75;100.00;98564.01;105697;1257;60880;-75
2024/02/12 01:11:14;;;;;;;34.00;17.70;;;;;;;3.76;100.00;98569.02;105586;1262;72654;-75
2024/02/12 01:13:44;;;;;;;44.30;17.50;;;;;;;3.79;100.00;98563.81;105593;1261;68838;-76
2024/02/12 01:16:11;;;;;;;52.20;17.60;;;;;;;3.78;100.00;98556.48;105473;1264;72507;-75
2024/02/12 01:18:39;;;;;;;33.50;18.30;;;;;;;3.74;100.00;98541.38;105476;1260;61951;-76
2024/02/12 01:21:07;;;;;;;37.70;16.50;;;;;;;3.79;100.00;98533.56;105607;1263;60334;-76
2024/02/12 01:23:35;;;;;;;45.70;16.30;;;;;;;3.83;100.00;98528.56;105524;1262;73901;-74
2024/02/12 01:26:03;;;;;;;59.30;18.00;;;;;;;3.81;100.00;98522.34;105645;1262;69787;-76
2024/02/12 01:28:31;;;;;;;34.40;17.30;;;;;;;3.77;100.00;98525.54;105557;1263;73854;-75
2024/02/12 01:30:59;;;;;;;38.60;15.70;;;;;;;3.81;100.00;98527.37;105566;1262;61686;-74
2024/02/12 01:33:28;;;;;;;25.70;15.00;;;;;;;3.86;100.00;98529.34;105635;1262;60371;-74
2024/02/12 01:35:56;;;;;;;36.00;15.10;;;;;;;3.82;100.00;98531.67;105746;1262;72597;-73
2024/02/12 01:38:24;;;;;;;31.10;14.80;;;;;;;3.82;100.00;98537.06;105480;1259;69065;-76
2024/02/12 01:40:51;;;;;;;44.90;15.40;;;;;;;3.86;100.00;98542.98;105460;1263;72377;-73
2024/02/12 01:43:34;;;;;;;51.40;15.60;;;;;;;3.86;100.00;98543.21;105382;1264;60555;-75
2024/02/12 01:46:05;;;;;;;46.80;14.70;;;;;;;3.83;100.00;98551.88;105536;1262;60451;-74
2024/02/12 01:48:35;;;;;;;43.40;13.30;;;;;;;3.90;100.00;98560.66;105559;1263;72650;-75
2024/02/12 01:51:07;;;;;;;66.40;15.40;;;;;;;3.92;100.00;98564.42;105683;1258;70106;-74
2024/02/12 01:53:39;;;;;;;58.10;16.10;;;;;;;3.85;100.00;98568.16;105632;1260;70571;-76
2024/02/12 01:56:08;;;;;;;48.50;14.70;;;;;;;3.79;100.00;98574.38;105639;1265;60518;-73
2024/02/12 01:58:40;;;;;;;44.10;14.80;;;;;;;3.79;100.00;98575.92;105502;1257;61104;-73
2024/02/12 02:01:15;;;;;;;31.80;14.80;;;;;;;3.81;100.00;98572.95;105767;1258;72578;-76
2024/02/12 02:03:43;;;;;;;60.70;16.30;;;;;;;3.75;100.00;98569.36;107197;1261;69180;-75
2024/02/12 02:06:12;;;;;;;38.00;16.60;;;;;;;3.67;100.00;98571.84;107479;1257;71727;-75
2024/02/12 02:08:41;;;;;;;41.30;14.00;;;;;;;3.69;100.00;98565.54;106166;1264;60855;-74
2024/02/12 02:11:10;;;;;;;37.30;15.00;;;;;;;3.73;100.00;98560.98;105624;1257;60571;-75
2024/02/12 02:13:44;;;;;;;68.90;16.10;;;;;;;3.71;100.00;98560.63;105637;1261;72367;-74
2024/02/12 02:16:12;;;;;;;37.80;15.20;;;;;;;3.69;100.00;98566.08;105646;1262;68877;-75
2024/02/12 02:18:45;;;;;;;45.20;16.80;;;;;;;3.78;100.00;98573.26;105602;1261;71474;-75
2024/02/12 02:21:12;;;;;;;43.50;15.70;;;;;;;3.88;100.00;98579.24;105660;1262;60470;-74
2024/02/12 02:23:40;;;;;;;62.30;15.90;;;;;;;3.89;100.00;98590.52;105570;1258;61016;-74
2024/02/12 02:26:08;;;;;;;54.70;15.40;;;;;;;3.89;100.00;98594.59;105466;1257;73014;-75
2024/02/12 02:28:36;;;;;;;41.50;14.60;;;;;;;3.96;100.00;98597.23;105533;1262;69194;-73
2024/02/12 02:31:04;;;;;;;68.80;15.30;;;;;;;4.00;100.00;98586.79;105537;1263;71349;-72
2024/02/12 02:33:31;;;;;;;73.70;16.50;;;;;;;3.96;100.00;98591.94;105544;1263;60476;-76
2024/02/12 02:36:01;;;;;;;50.90;15.10;;;;;;;3.96;100.00;98591.41;105522;1257;61111;-75
2024/02/12 02:38:29;;;;;;;35.00;14.90;;;;;;;4.03;100.00;98581.54;105504;1258;72642;-75
2024/02/12 02:40:57;;;;;;;47.40;14.30;;;;;;;4.08;100.00;98574.90;105615;1262;68741;-75
2024/02/12 02:43:24;;;;;;;65.10;15.80;;;;;;;4.00;100.00;98568.21;105520;1263;73131;-73
2024/02/12 02:45:52;;;;;;;36.00;14.90;;;;;;;3.91;100.00;98569.64;105627;1262;60769;-74
2024/02/12 02:48:19;;;;;;;35.10;14.20;;;;;;;3.95;100.00;98573.80;105402;1256;60604;-76
2024/02/12 02:50:47;;;;;;;53.30;15.30;;;;;;;4.05;100.00;98576.61;105452;1264;73824;-76
2024/02/12 02:53:14;;;;;;;57.70;16.10;;;;;;;4.07;100.00;98577.71;105638;1262;68990;-75
2024/02/12 02:55:43;;;;;;;41.50;13.90;;;;;;;4.01;100.00;98577.72;105474;1263;72998;-75
2024/02/12 02:58:10;;;;;;;42.50;15.10;;;;;;;4.03;100.00;98575.46;105840;1258;62617;-76
2024/02/12 03:00:38;;;;;;;39.20;14.50;;;;;;;4.06;100.00;98570.55;106342;1262;60443;-78
2024/02/12 03:03:06;;;;;;;44.50;14.50;;;;;;;4.04;100.00;98568.21;107330;1263;73916;-74
2024/02/12 03:05:34;;;;;;;59.90;14.60;;;;;;;3.99;100.00;98562.73;108216;1257;68723;-75
2024/02/12 03:08:06;;;;;;;45.20;15.00;;;;;;;3.96;100.00;98558.50;106809;1259;71703;-76
2024/02/12 03:10:34;;;;;;;46.60;15.10;;;;;;;3.99;100.00;98564.79;105877;1257;60503;-75
2024/02/12 03:13:04;;;;;;;78.30;14.70;;;;;;;4.03;100.00;98564.40;105720;1264;60485;-76
2024/02/12 03:15:36;;;;;;;52.60;14.40;;;;;;;3.99;100.00;98557.43;105514;1257;72657;-75
2024/02/12 03:18:04;;;;;;;51.10;13.50;;;;;;;3.91;100.00;98559.35;105429;1262;70328;-76
2024/02/12 03:20:32;;;;;;;32.90;13.30;;;;;;;3.89;100.00;98561.05;105701;1261;72777;-75
2024/02/12 03:23:01;;;;;;;55.00;13.70;;;;;;;3.95;100.00;98560.99;105474;1261;60582;-75
2024/02/12 03:25:28;;;;;;;56.20;14.50;;;;;;;3.97;100.00;98560.02;105432;1257;60406;-75
2024/02/12 03:27:56;;;;;;;20.60;13.10;;;;;;;3.94;100.00;98558.99;105429;1263;73873;-76
2024/02/12 03:30:24;;;;;;;47.60;13.70;;;;;;;4.00;100.00;98560.13;105472;1262;70129;-75
2024/02/12 03:32:52;;;;;;;46.20;13.30;;;;;;;4.06;100.00;98558.13;105593;1260;71620;-73
2024/02/12 03:35:20;;;;;;;46.10;13.70;;;;;;;4.08;100.00;98562.34;105565;1258;60485;-75
2024/02/12 03:37:47;;;;;;;63.60;14.60;;;;;;;4.07;100.00;98556.95;105403;1262;60473;-75
2024/02/12 03:40:17;;;;;;;34.10;13.10;;;;;;;4.10;100.00;98556.88;105370;1263;73788;-75
2024/02/12 03:42:49;;;;;;;41.00;13.40;;;;;;;4.11;100.00;98554.84;105647;1263;69712;-74
2024/02/12 03:45:17;;;;;;;43.10;13.40;;;;;;;4.04;100.00;98546.42;105518;1254;72721;-74
2024/02/12 03:47:47;;;;;;;53.50;12.80;;;;;;;3.97;100.00;98536.48;105864;1259;60438;-73
2024/02/12 04:01:26;;;;;;;29.50;13.40;;;;;;;4.00;100.00;98534.27;108072;1260;60413;-75
2024/02/12 04:03:54;;;;;;;59.50;16.30;;;;;;;3.97;100.00;98530.69;108498;1254;59214;-74
2024/02/12 04:06:22;;;;;;;35.30;14.20;;;;;;;3.87;100.00;98530.13;107680;1254;73791;-75
2024/02/12 04:08:51;;;;;;;56.00;14.70;;;;;;;3.81;100.00;98535.98;105864;1254;68805;-76
2024/02/12 04:11:19;;;;;;;38.30;14.90;;;;;;;3.80;100.00;98531.66;105714;1257;72809;-75
2024/02/12 04:13:46;;;;;;;59.60;16.10;;;;;;;3.81;100.00;98536.34;105683;1254;60469;-75
2024/02/12 04:16:14;;;;;;;33.00;14.50;;;;;;;3.76;100.00;98536.07;105588;1260;60456;-74
2024/02/12 04:18:42;;;;;;;35.00;14.20;;;;;;;3.70;100.00;98541.61;105610;1254;72883;-76
2024/02/12 04:21:10;;;;;;;33.00;13.30;;;;;;;3.72;100.00;98545.30;105566;1260;69358;-75
2024/02/12 04:23:38;;;;;;;39.20;12.90;;;;;;;3.75;100.00;98549.37;105730;1259;71430;-76
2024/02/12 04:26:08;;;;;;;57.20;13.50;;;;;;;3.70;100.00;98550.35;105706;1260;60472;-76
2024/02/12 04:28:46;;;;;;;51.60;13.40;;;;;;;3.64;100.00;98546.44;105758;1260;60419;-75
2024/02/12 04:31:13;;;;;;;42.30;12.90;;;;;;;3.64;100.00;98543.97;105742;1254;72604;-76
2024/02/12 04:33:41;;;;;;;54.50;13.00;;;;;;;3.66;100.00;98543.76;105603;1254;70358;-75
2024/02/12 04:36:09;;;;;;;64.60;14.60;;;;;;;3.62;100.00;98541.52;105550;1260;70522;-75
2024/02/12 04:38:37;;;;;;;47.50;14.10;;;;;;;3.61;100.00;98542.73;105908;1257;61620;-74
2024/02/12 04:41:05;;;;;;;42.10;14.50;;;;;;;3.68;100.00;98544.82;106045;1254;60429;-76
2024/02/12 04:43:35;;;;;;;55.30;13.10;;;;;;;3.73;100.00;98544.96;106335;1254;73934;-74
2024/02/12 04:46:02;;;;;;;58.30;14.10;;;;;;;3.70;100.00;98544.00;105564;1262;68457;-75
2024/02/12 04:48:31;;;;;;;32.70;14.50;;;;;;;3.67;100.00;98548.72;105697;1257;74787;-76
2024/02/12 04:50:59;;;;;;;35.20;14.40;;;;;;;3.74;100.00;98551.89;105793;1257;60398;-74
2024/02/12 04:53:27;;;;;;;46.20;14.30;;;;;;;3.81;100.00;98553.67;105809;1258;60456;-75
2024/02/12 04:55:55;;;;;;;69.30;14.60;;;;;;;3.80;100.00;98549.95;105741;1260;72605;-75
2024/02/12 04:58:23;;;;;;;24.40;13.90;;;;;;;3.77;100.00;98537.38;106970;1254;70375;-75
2024/02/12 05:00:51;;;;;;;37.40;13.80;;;;;;;3.82;100.00;98535.33;107826;1254;72725;-73
2024/02/12 05:03:19;;;;;;;44.50;14.40;;;;;;;3.88;100.00;98535.23;107311;1253;60525;-76
2024/02/12 05:05:49;;;;;;;48.20;16.00;;;;;;;3.89;100.00;98536.23;107618;1260;60250;-76
2024/02/12 05:08:17;;;;;;;27.90;14.90;;;;;;;3.89;100.00;98541.26;105899;1254;72576;-74
2024/02/12 05:10:45;;;;;;;33.20;15.00;;;;;;;3.94;100.00;98540.10;105777;1259;70521;-75
2024/02/12 05:13:13;;;;;;;35.40;15.20;;;;;;;3.97;100.00;98544.52;105725;1261;71366;-73
2024/02/12 05:15:40;;;;;;;37.50;16.30;;;;;;;4.00;100.00;98554.54;105592;1257;60559;-73
2024/02/12 05:23:41;;;;;;;31.90;16.90;;;;;;;4.08;100.00;98562.81;105542;1260;69172;-75
2024/02/12 05:26:09;;;;;;;38.10;19.50;;;;;;;4.05;100.00;98559.67;105777;1257;71706;-74
2024/02/12 05:28:36;;;;;;;34.80;17.30;;;;;;;4.02;100.00;98566.76;105579;1257;61705;-74
2024/02/12 05:31:04;;;;;;;30.10;15.90;;;;;;;4.11;100.00;98567.95;105635;1260;60097;-72
2024/02/12 05:33:31;;;;;;;36.10;18.00;;;;;;;4.23;100.00;98566.11;105761;1257;73892;-73
2024/02/12 05:35:59;;;;;;;39.10;19.00;;;;;;;4.23;100.00;98571.53;105697;1260;68875;-75
2024/02/12 05:38:27;;;;;;;33.10;17.00;;;;;;;4.20;100.00;98571.81;105711;1258;72695;-75
2024/02/12 05:40:54;;;;;;;30.60;15.90;;;;;;;4.23;100.00;98576.37;105748;1254;60488;-75
2024/02/12 05:43:22;;;;;;;32.40;17.20;;;;;;;4.27;100.00;98573.77;105821;1254;59264;-75
2024/02/12 05:45:49;;;;;;;23.80;16.90;;;;;;;4.24;100.00;98577.39;105875;1258;73099;-75
2024/02/12 05:48:17;;;;;;;32.80;16.90;;;;;;;4.21;100.00;98580.46;106241;1260;68709;-75
2024/02/12 05:50:48;;;;;;;35.90;17.10;;;;;;;4.26;100.00;98580.11;106329;1256;387753;-75
2024/02/12 05:55:29;;;;;;;32.90;19.20;;;;;;;4.32;100.00;98580.20;102614;1294;600424;-76
2024/02/12 05:57:56;;;;;;;25.90;16.50;;;;;;;4.23;100.00;98581.46;104944;1267;61741;-75
2024/02/12 06:00:24;;;;;;;21.80;15.00;;;;;;;4.26;100.00;98586.80;105886;1266;60033;-77
2024/02/12 06:02:52;;;;;;;29.20;16.20;;;;;;;4.31;100.00;98587.85;108240;1266;70989;-79
2024/02/12 06:05:19;;;;;;;27.30;16.50;;;;;;;4.24;100.00;98580.36;107565;1266;68732;-79
2024/02/12 06:07:47;;;;;;;28.20;16.00;;;;;;;4.19;100.00;98575.09;105178;1266;72648;-80
2024/02/12 06:10:18;;;;;;;19.60;13.70;;;;;;;4.23;100.00;98563.11;105438;1266;215597;-79
2024/02/12 06:12:46;;;;;;;24.50;15.50;;;;;;;4.27;100.00;98565.45;105431;1263;60041;-78
2024/02/12 06:15:13;;;;;;;24.50;15.80;;;;;;;4.23;100.00;98571.18;105264;1266;72398;-79
2024/02/12 06:17:42;;;;;;;28.70;14.70;;;;;;;4.18;100.00;98568.02;105321;1265;68850;-79
2024/02/12 06:20:11;;;;;;;21.80;13.90;;;;;;;4.20;100.00;98569.41;105011;1265;72736;-79
2024/02/12 06:22:38;;;;;;;23.30;14.80;;;;;;;4.21;100.00;98568.45;105120;1266;59672;-79
2024/02/12 06:25:08;;;;;;;28.40;15.00;;;;;;;4.14;100.00;98568.23;104933;1263;59920;-78
2024/02/12 06:27:36;;;;;;;25.00;15.30;;;;;;;4.07;100.00;98564.52;105228;1264;71851;-79
2024/02/12 06:30:04;;;;;;;25.40;14.70;;;;;;;4.11;100.00;98560.41;105148;1265;70446;-77
2024/02/12 06:32:31;;;;;;;21.60;14.00;;;;;;;4.18;100.00;98561.00;104950;1271;72054;-78
2024/02/12 06:35:00;;;;;;;23.20;16.00;;;;;;;4.16;100.00;98560.32;105251;1268;59550;-78
2024/02/12 06:37:27;;;;;;;25.00;15.40;;;;;;;4.12;100.00;98560.67;105487;1257;59697;-77
2024/02/12 06:39:55;;;;;;;32.30;15.50;;;;;;;4.14;100.00;98560.80;105601;1256;72176;-78
2024/02/12 06:42:22;;;;;;;33.10;15.90;;;;;;;4.20;100.00;98560.42;106278;1256;69406;-77
2024/02/12 06:44:50;;;;;;;26.00;16.20;;;;;;;4.17;100.00;98558.06;105716;1256;74391;-80
2024/02/12 06:47:17;;;;;;;22.00;15.20;;;;;;;4.15;100.00;98555.62;105782;1259;60080;-81
2024/02/12 06:49:45;;;;;;;30.00;15.70;;;;;;;4.18;100.00;98554.45;105910;1262;59437;-80
2024/02/12 06:52:13;;;;;;;33.60;17.10;;;;;;;4.12;100.00;98557.86;106047;1256;74169;-79
2024/02/12 06:54:41;;;;;;;31.80;14.90;;;;;;;4.09;100.00;98565.14;106393;1262;71629;-78
2024/02/12 06:57:09;;;;;;;23.40;15.00;;;;;;;4.15;100.00;98568.96;106989;1260;72803;-79
2024/02/12 06:59:39;;;;;;;24.70;14.10;;;;;;;4.20;100.00;98565.83;105947;1264;59984;-77
2024/02/12 07:02:07;;;;;;;25.90;14.80;;;;;;;4.16;100.00;98564.50;108226;1257;60102;-76
2024/02/12 07:04:35;;;;;;;21.80;13.80;;;;;;;4.12;100.00;98566.42;108107;1256;71874;-78
2024/02/12 07:07:03;;;;;;;19.30;14.30;;;;;;;4.20;100.00;98561.53;107894;1260;71100;-77
2024/02/12 07:09:31;;;;;;;35.00;16.20;;;;;;;4.20;100.00;98559.69;106615;1257;71599;-78
2024/02/12 07:11:58;;;;;;;27.60;15.10;;;;;;;4.19;100.00;98565.23;106201;1256;61705;-78
2024/02/12 07:14:27;;;;;;;30.70;15.40;;;;;;;4.28;100.00;98564.34;105755;1257;59997;-79
2024/02/12 07:16:54;;;;;;;32.00;15.40;;;;;;;4.39;100.00;98565.86;106705;1256;72551;-79
2024/02/12 07:19:22;;;;;;;31.00;15.60;;;;;;;4.42;100.00;98563.96;105626;1256;70152;-77
2024/02/12 07:21:50;;;;;;;30.90;15.10;;;;;;;4.45;100.00;98565.94;105818;1257;71289;-76
2024/02/12 07:24:17;;;;;;;26.70;15.40;;;;;;;4.60;100.00;98567.56;105691;1256;60385;-78
2024/02/12 07:26:45;;;;;;;22.70;15.60;;;;;;;4.75;100.00;98565.84;105778;1256;59844;-78
2024/02/12 07:29:13;;;;;;;29.20;16.70;;;;;;;4.79;100.00;98563.88;106507;1256;71754;-78
2024/02/12 07:31:44;;;;;;;26.10;15.80;;;;;;;4.81;100.00;98570.99;106600;1261;70320;-78
2024/02/12 07:34:11;;;;;;;27.40;15.50;;;;;;;4.92;100.00;98573.39;106048;1256;72820;-77
2024/02/12 07:36:45;;;;;;;23.20;15.80;;;;;;;5.00;100.00;98572.16;105732;1261;60081;-77
2024/02/12 07:39:12;;;;;;;33.30;17.80;;;;;;;4.99;100.00;98579.00;106296;1260;59516;-77
2024/02/12 07:41:40;;;;;;;31.20;16.80;;;;;;;4.97;100.00;98577.13;106270;1256;72301;-77
2024/02/12 07:44:10;;;;;;;28.00;18.60;;;;;;;5.01;100.00;98579.06;105593;1262;69463;-78
2024/02/12 07:46:38;;;;;;;30.30;18.40;;;;;;;5.00;100.00;98583.77;105797;1260;71399;-77
2024/02/12 07:49:06;;;;;;;30.90;18.10;;;;;;;4.92;100.00;98588.23;106049;1253;60474;-77
2024/02/12 07:51:34;;;;;;;37.20;19.20;;;;;;;4.92;100.00;98585.44;106013;1258;62290;-78
2024/02/12 07:54:02;;;;;;;33.80;20.60;;;;;;;4.90;100.00;98576.16;106152;1257;72385;-78
2024/02/12 07:56:30;;;;;;;30.20;19.10;;;;;;;4.86;100.00;98571.50;106303;1258;69001;-77
2024/02/12 07:58:57;;;;;;;26.60;18.20;;;;;;;4.93;100.00;98571.17;107929;1253;73368;-79
2024/02/12 08:01:25;;;;;;;28.60;18.50;;;;;;;5.01;100.00;98573.48;109085;1256;58853;-77
2024/02/12 08:03:53;;;;;;;39.20;20.40;;;;;;;5.04;100.00;98571.91;107421;1257;59627;-78
2024/02/12 08:06:21;;;;;;;26.40;18.40;;;;;;;5.02;100.00;98569.86;106477;1253;74673;-76
2024/02/12 08:08:48;;;;;;;28.70;18.60;;;;;;;5.04;100.00;98569.09;106201;1257;70589;-76
2024/02/12 08:11:17;;;;;;;32.00;19.90;;;;;;;5.10;100.00;98565.52;105840;1256;73600;-77
2024/02/12 08:13:45;;;;;;;35.20;21.90;;;;;;;5.10;100.00;98562.55;105875;1253;61401;-77
2024/02/12 08:16:13;;;;;;;35.50;19.80;;;;;;;5.12;100.00;98571.79;106099;1253;59551;-82
2024/02/12 08:18:41;;;;;;;29.50;19.20;;;;;;;5.22;100.00;98571.58;106654;1259;72144;-83
2024/02/12 08:21:09;;;;;;;37.00;20.20;;;;;;;5.32;100.00;98571.59;108780;1253;71440;-83
2024/02/12 08:23:37;;;;;;;52.60;23.00;;;;;;;5.32;100.00;98570.89;109343;1256;71235;-84
2024/02/12 08:26:06;;;;;;;35.40;20.40;;;;;;;5.35;100.00;98570.46;109109;1252;61849;-85
2024/02/12 08:28:34;;;;;;;35.50;21.00;;;;;;;5.45;100.00;98571.11;108749;1254;61884;-85
2024/02/12 08:31:03;;;;;;;38.10;22.80;;;;;;;5.57;100.00;98569.82;107780;1257;71816;-82
2024/02/12 08:33:30;;;;;;;38.80;23.90;;;;;;;5.62;100.00;98572.86;107535;1258;68876;-82
2024/02/12 08:35:58;;;;;;;37.50;22.90;;;;;;;5.62;100.00;98569.87;108111;1254;73772;-83
2024/02/12 08:38:26;;;;;;;34.40;21.60;;;;;;;5.70;100.00;98574.98;108442;1257;60580;-81
2024/02/12 08:40:55;;;;;;;40.90;21.70;;;;;;;5.78;100.00;98576.88;107590;1254;60065;-82
2024/02/12 08:43:23;;;;;;;50.60;26.00;;;;;;;5.75;100.00;98580.56;108462;1255;71758;-82
2024/02/12 08:45:50;;;;;;;38.00;23.10;;;;;;;5.71;100.00;98579.21;106801;1257;70567;-80
2024/02/12 08:48:18;;;;;;;39.40;23.30;;;;;;;5.80;100.00;98583.86;106695;1256;71401;-83
2024/02/12 08:50:48;;;;;;;41.50;23.90;;;;;;;5.93;100.00;98586.48;106445;1257;59753;-81
2024/02/12 08:53:16;;;;;;;40.40;24.80;;;;;;;5.97;100.00;98591.22;106606;1256;60065;-81
2024/02/12 08:55:45;;;;;;;39.00;23.10;;;;;;;5.98;100.00;98594.94;107066;1255;72794;-83
2024/02/12 08:58:13;;;;;;;35.00;22.90;;;;;;;6.00;100.00;98598.65;109000;1254;68788;-81
2024/02/12 09:00:44;;;;;;;38.00;24.90;;;;;;;5.98;100.00;98593.52;108604;1256;73569;-83
2024/02/12 09:03:13;;;;;;;46.50;25.40;;;;;;;5.93;100.00;98592.34;107970;1260;59647;-81
2024/02/12 09:05:42;;;;;;;47.80;27.40;;;;;;;5.94;100.00;98593.15;108133;1259;60197;-80
2024/02/12 09:08:09;;;;;;;40.20;25.40;;;;;;;6.02;100.00;98593.09;107073;1257;73384;-80
2024/02/12 09:10:37;;;;;;;40.10;25.50;;;;;;;6.09;100.00;98591.10;106949;1260;69079;-79
2024/02/12 09:13:05;;;;;;;39.10;26.60;;;;;;;6.09;100.00;98585.46;106720;1259;70690;-81
2024/02/12 09:15:32;;;;;;;42.60;28.00;;;;;;;6.10;100.00;98585.92;107297;1260;63047;-80
2024/02/12 09:18:00;;;;;;;38.40;25.30;;;;;;;6.18;100.00;98584.35;107458;1262;61556;-80
2024/02/12 09:20:29;;;;;;;48.10;28.10;;;;;;;6.25;99.95;98583.09;106492;1259;70810;-84
2024/02/12 09:22:58;;;;;;;51.70;29.90;;;;;;;6.22;100.00;98584.21;106857;1259;68889;-81
2024/02/12 09:25:25;;;;;;;44.80;26.10;;;;;;;6.24;100.00;98583.52;106679;1260;72815;-81
2024/02/12 09:27:55;;;;;;;44.50;27.60;;;;;;;6.32;99.96;98584.80;106628;1256;61411;-80
2024/02/12 09:30:23;;;;;;;52.20;31.10;;;;;;;6.33;100.00;98585.73;106331;1258;60573;-79
2024/02/12 09:32:51;;;;;;;50.40;29.60;;;;;;;6.34;100.00;98586.30;106345;1254;71931;-81
2024/02/12 09:35:19;;;;;;;41.80;27.10;;;;;;;6.44;100.00;98581.79;106928;1255;71162;-80
2024/02/12 09:37:49;;;;;;;47.70;28.70;;;;;;;6.53;99.63;98578.05;106518;1260;71825;-83
2024/02/12 09:40:21;;;;;;;49.40;33.20;;;;;;;6.49;99.65;98580.61;107866;1256;60522;-81
2024/02/12 09:42:56;;;;;;;49.10;29.10;;;;;;;6.48;99.98;98581.08;108349;1254;59427;-79
2024/02/12 09:45:30;;;;;;;55.80;29.10;;;;;;;6.53;100.00;98575.05;108394;1254;71737;-80
2024/02/12 09:47:59;;;;;;;41.40;28.70;;;;;;;6.56;100.00;98572.45;109098;1259;69941;-82
2024/02/12 09:50:28;;;;;;;46.10;28.10;;;;;;;6.56;100.00;98573.52;108977;1257;72567;-81
2024/02/12 09:52:58;;;;;;;43.20;26.70;;;;;;;6.66;99.88;98571.74;108805;1254;62913;-81
2024/02/12 09:55:26;;;;;;;37.20;26.60;;;;;;;6.77;99.53;98571.81;109226;1256;61096;-85
2024/02/12 09:57:54;;;;;;;36.60;23.90;;;;;;;6.79;99.18;98566.73;109155;1254;74110;-83
2024/02/12 10:00:22;;;;;;;35.80;24.60;;;;;;;6.82;98.55;98571.61;109311;1254;69393;-87
2024/02/12 10:02:53;;;;;;;38.00;25.20;;;;;;;6.79;97.49;98567.72;109245;1254;73816;-85
2024/02/12 10:05:23;;;;;;;36.00;24.30;;;;;;;6.69;97.92;98568.98;108419;1255;59892;-82
2024/02/12 10:07:55;;;;;;;38.30;26.00;;;;;;;6.62;97.62;98577.42;107240;1254;61202;-86
2024/02/12 10:10:24;;;;;;;42.50;26.90;;;;;;;6.58;97.62;98578.05;108159;1259;73110;-83
2024/02/12 10:12:53;;;;;;;36.80;25.00;;;;;;;6.50;97.77;98576.63;106536;1259;69570;-83
2024/02/12 10:15:20;;;;;;;37.00;24.10;;;;;;;6.49;97.30;98580.61;106793;1256;71949;-85
2024/02/12 10:17:50;;;;;;;44.50;26.40;;;;;;;6.43;96.93;98579.08;108051;1260;60414;-86
2024/02/12 10:20:18;;;;;;;43.40;27.30;;;;;;;6.33;97.44;98579.70;107768;1255;61219;-85
2024/02/12 10:22:46;;;;;;;39.60;26.10;;;;;;;6.26;98.21;98579.95;108008;1254;76061;-87
2024/02/12 10:25:15;;;;;;;39.00;23.40;;;;;;;6.30;97.96;98573.67;107109;1258;69911;-83
2024/02/12 10:27:43;;;;;;;35.20;24.00;;;;;;;6.32;96.80;98571.91;106433;1260;72903;-83
2024/02/12 10:30:15;;;;;;;37.70;24.70;;;;;;;6.21;96.45;98565.92;107159;1262;64056;-82
2024/02/12 10:32:47;;;;;;;37.80;23.50;;;;;;;6.21;97.31;98568.95;108895;1254;60462;-80
2024/02/12 10:35:16;;;;;;;38.00;25.00;;;;;;;6.19;97.39;98570.55;105926;1263;73943;-80
2024/02/12 10:37:45;;;;;;;39.20;23.30;;;;;;;6.16;97.31;98577.55;106494;1256;72751;-82
2024/02/12 10:40:16;;;;;;;37.60;24.10;;;;;;;6.15;97.34;98573.74;106289;1261;72511;-82
2024/02/12 10:42:52;;;;;;;37.20;25.10;;;;;;;6.17;97.85;98558.35;106513;1258;60615;-87
2024/02/12 10:45:20;;;;;;;38.50;24.00;;;;;;;6.14;98.07;98559.39;106277;1261;60981;-84
2024/02/12 10:47:48;;;;;;;31.10;22.30;;;;;;;6.19;98.18;98555.95;107164;1260;72842;-86
2024/02/12 10:50:17;;;;;;;32.90;22.70;;;;;;;6.26;98.45;98556.42;106416;1263;69691;-86
2024/02/12 10:52:48;;;;;;;40.20;25.30;;;;;;;6.37;98.91;98551.01;106555;1260;71405;-83
2024/02/12 10:55:16;;;;;;;37.80;23.70;;;;;;;6.49;99.56;98544.69;108464;1256;60989;-83
2024/02/12 10:57:44;;;;;;;34.80;24.00;;;;;;;6.59;99.49;98545.74;109104;1256;59152;-84
2024/02/12 11:00:27;;;;;;;37.30;24.30;;;;;;;6.70;99.09;98544.30;109262;1256;75222;-85
2024/02/12 11:02:55;;;;;;;37.30;23.80;;;;;;;6.84;99.51;98545.95;109403;1257;69464;-86
2024/02/12 11:05:23;;;;;;;35.50;25.00;;;;;;;6.88;98.96;98542.11;109006;1257;71513;-86
2024/02/12 11:08:08;;;;;;;32.50;23.10;;;;;;;6.93;98.05;98541.41;108365;1257;60760;-85
2024/02/12 11:10:40;;;;;;;34.00;23.60;;;;;;;6.98;97.50;98535.01;108454;1257;60961;-84
2024/02/12 11:13:15;;;;;;;34.30;23.60;;;;;;;6.98;98.13;98533.23;107041;1258;74554;-85
2024/02/12 11:15:49;;;;;;;32.50;23.70;;;;;;;7.06;99.38;98530.52;106028;1263;69540;-85
2024/02/12 11:18:18;;;;;;;35.20;23.10;;;;;;;7.20;98.93;98527.05;106066;1263;72367;-85
2024/02/12 11:20:49;;;;;;;33.50;23.60;;;;;;;7.24;97.87;98526.59;106456;1255;60365;-85
2024/02/12 11:23:24;;;;;;;33.70;24.90;;;;;;;7.19;97.51;98533.20;106375;1256;61182;-85
2024/02/12 11:25:55;;;;;;;37.00;26.50;;;;;;;7.16;97.58;98536.77;106450;1256;73971;-85
2024/02/12 11:28:27;;;;;;;38.50;27.10;;;;;;;7.16;97.91;98532.95;108010;1254;68988;-85
2024/02/12 11:30:55;;;;;;;34.50;25.40;;;;;;;7.16;97.95;98533.71;108895;1254;74619;-85
2024/02/12 11:33:26;;;;;;;37.50;26.20;;;;;;;7.20;98.10;98531.38;106311;1260;61974;-90
2024/02/12 11:36:07;;;;;;;38.90;27.30;;;;;;;7.28;98.95;98532.59;106671;1260;60939;-79